Time;durP1;ratioP1;P1;durP2;ratioP2;P2;SDS_P1;SDS_P2;PMS_P1;PMS_P2;Temp;Humidity;BMP_temperature;BMP_pressure;BME280_temperature;BME280_humidity;BME280_pressure;Samples;Min_cycle;Max_cycle;Signal;HPM_P1;HPM_P2
2023/06/19 00:00:42;;;;;;;8.15;5.60;;;;;;;20.42;50.55;101146.28;4998000;28;20021;-65
2023/06/19 00:03:07;;;;;;;8.45;5.70;;;;;;;20.54;50.29;101155.94;5014227;28;20179;-65
2023/06/19 00:05:33;;;;;;;9.40;5.55;;;;;;;20.45;50.28;101156.75;5030560;28;20530;-64
2023/06/19 00:07:58;;;;;;;7.53;5.35;;;;;;;20.29;50.79;101147.34;4995231;28;20431;-64
2023/06/19 00:10:23;;;;;;;7.57;5.95;;;;;;;20.33;50.86;101159.53;4995640;28;20537;-65
2023/06/19 00:12:49;;;;;;;7.72;5.60;;;;;;;20.50;50.47;101154.50;4995040;28;20109;-66
2023/06/19 00:15:14;;;;;;;9.45;5.50;;;;;;;20.43;50.63;101150.66;4995089;28;20121;-65
2023/06/19 00:17:41;;;;;;;6.32;5.10;;;;;;;20.35;50.95;101154.88;4995048;28;20080;-65
2023/06/19 00:20:07;;;;;;;10.18;6.25;;;;;;;20.29;51.40;101150.03;4996217;28;20026;-65
2023/06/19 00:22:32;;;;;;;6.85;5.90;;;;;;;20.48;50.95;101151.97;4995029;28;20033;-64
2023/06/19 00:24:58;;;;;;;8.38;5.60;;;;;;;20.30;52.01;101149.03;4995066;28;20049;-64
2023/06/19 00:27:24;;;;;;;9.10;5.72;;;;;;;20.32;51.44;101151.59;4995358;28;20088;-64
2023/06/19 00:29:50;;;;;;;7.30;5.65;;;;;;;20.22;52.10;101146.16;4994795;28;20061;-64
2023/06/19 00:32:16;;;;;;;9.00;5.38;;;;;;;20.19;51.90;101141.91;4994735;28;20021;-64
2023/06/19 00:34:43;;;;;;;7.97;5.55;;;;;;;20.24;51.68;101139.66;4994843;28;20383;-65
2023/06/19 00:37:09;;;;;;;6.55;5.25;;;;;;;20.20;52.47;101121.28;4994969;28;20479;-65
2023/06/19 00:39:35;;;;;;;7.22;5.72;;;;;;;20.15;52.23;101123.50;5012223;28;20050;-65
2023/06/19 00:42:00;;;;;;;8.02;5.35;;;;;;;20.29;52.19;101125.84;4995184;28;20502;-65
2023/06/19 00:44:25;;;;;;;6.97;6.05;;;;;;;20.47;51.63;101112.66;4994802;28;20029;-65
2023/06/19 00:46:57;;;;;;;7.78;5.97;;;;;;;20.42;51.26;101103.28;4995012;28;20109;-64
2023/06/19 00:49:22;;;;;;;9.43;6.30;;;;;;;20.41;51.64;101115.00;4994951;28;20029;-64
2023/06/19 00:51:47;;;;;;;7.22;5.85;;;;;;;20.50;51.07;101108.81;4994837;28;20030;-65
2023/06/19 00:54:14;;;;;;;7.05;5.80;;;;;;;20.55;50.51;101120.00;4978402;28;20367;-65
2023/06/19 00:56:41;;;;;;;8.48;6.13;;;;;;;20.43;51.23;101121.09;4994833;28;20026;-65
2023/06/19 00:59:08;;;;;;;8.13;6.15;;;;;;;20.47;50.60;101117.16;5012775;28;20050;-65
2023/06/19 01:01:34;;;;;;;6.68;5.35;;;;;;;20.39;51.56;101109.75;4994843;28;20026;-64
2023/06/19 01:03:59;;;;;;;7.20;5.70;;;;;;;20.22;52.17;101100.50;4978199;28;20389;-64
2023/06/19 01:06:28;;;;;;;7.97;6.35;;;;;;;20.27;52.23;101110.84;5011992;28;20022;-65
2023/06/19 01:09:02;;;;;;;6.28;5.65;;;;;;;20.22;53.06;101108.56;4978284;28;20052;-66
2023/06/19 01:11:37;;;;;;;9.95;6.13;;;;;;;20.21;52.78;101085.38;4994670;28;20022;-64
2023/06/19 01:14:06;;;;;;;7.85;6.05;;;;;;;20.46;52.06;101089.44;4994510;28;20033;-65
2023/06/19 01:16:32;;;;;;;7.38;6.28;;;;;;;20.28;52.61;101082.97;5012058;28;20041;-65
2023/06/19 01:18:58;;;;;;;7.32;6.00;;;;;;;20.17;52.28;101073.19;4994503;28;20041;-63
2023/06/19 01:21:23;;;;;;;9.88;6.43;;;;;;;20.23;52.47;101078.88;4994420;28;20447;-63
2023/06/19 01:23:48;;;;;;;10.00;5.80;;;;;;;20.16;52.86;101076.88;4994367;28;20030;-63
2023/06/19 01:26:16;;;;;;;8.90;6.50;;;;;;;20.26;52.53;101072.38;5012032;28;20034;-63
2023/06/19 01:28:42;;;;;;;7.10;6.22;;;;;;;20.25;52.35;101060.78;5011990;28;20034;-64
2023/06/19 01:31:17;;;;;;;9.13;6.68;;;;;;;20.14;52.60;101060.03;4994666;28;20064;-64
2023/06/19 01:33:43;;;;;;;6.68;5.90;;;;;;;20.31;52.43;101058.53;4994631;28;20014;-64
2023/06/19 01:36:09;;;;;;;8.07;6.28;;;;;;;20.28;52.35;101059.66;4994678;28;20026;-65
2023/06/19 01:38:35;;;;;;;6.80;6.10;;;;;;;20.24;52.95;101063.63;4994448;28;20030;-67
2023/06/19 01:41:01;;;;;;;7.50;6.53;;;;;;;20.22;52.93;101057.53;4994331;28;20104;-64
2023/06/19 01:43:27;;;;;;;7.97;6.15;;;;;;;20.34;52.50;101051.06;4995767;28;20036;-65
2023/06/19 01:45:52;;;;;;;6.80;6.03;;;;;;;20.24;52.59;101048.31;4997903;28;20376;-65
2023/06/19 01:48:18;;;;;;;8.48;6.40;;;;;;;20.35;52.13;101052.75;4981672;28;20018;-67
2023/06/19 01:50:47;;;;;;;8.73;6.90;;;;;;;20.44;51.43;101053.78;4998030;28;20037;-66
2023/06/19 01:53:13;;;;;;;6.85;5.95;;;;;;;20.31;52.21;101055.84;4998629;28;20117;-65
2023/06/19 01:55:39;;;;;;;7.63;6.53;;;;;;;20.13;52.50;101067.22;4997876;28;20093;-65
2023/06/19 01:58:04;;;;;;;7.35;6.05;;;;;;;20.06;52.53;101064.22;5015552;28;20061;-63
2023/06/19 02:00:30;;;;;;;9.57;6.28;;;;;;;20.01;52.93;101070.97;5015250;28;20136;-65
2023/06/19 02:02:55;;;;;;;9.18;6.80;;;;;;;20.01;53.56;101061.06;5015321;28;20029;-64
2023/06/19 02:05:21;;;;;;;8.93;6.10;;;;;;;20.05;54.14;101059.00;5014807;28;20041;-64
2023/06/19 02:07:46;;;;;;;9.68;6.90;;;;;;;19.99;53.73;101054.16;5014818;28;20030;-64
2023/06/19 02:10:12;;;;;;;9.30;6.40;;;;;;;19.98;53.10;101047.91;4997218;28;20037;-64
2023/06/19 02:12:37;;;;;;;8.85;6.35;;;;;;;20.19;52.82;101061.31;4997313;28;20474;-65
2023/06/19 02:15:03;;;;;;;7.75;6.63;;;;;;;20.13;53.07;101061.03;5014564;28;20022;-65
2023/06/19 02:17:29;;;;;;;7.32;6.63;;;;;;;20.07;52.76;101041.78;5014794;28;20033;-64
2023/06/19 02:19:54;;;;;;;8.07;6.30;;;;;;;19.98;53.03;101042.53;4997321;28;20129;-64
2023/06/19 02:22:19;;;;;;;8.20;6.85;;;;;;;19.99;53.04;101048.78;4997115;28;20026;-64
2023/06/19 02:24:45;;;;;;;7.85;6.82;;;;;;;19.93;53.76;101020.63;5014433;28;20033;-64
2023/06/19 02:27:10;;;;;;;11.70;6.95;;;;;;;20.02;53.47;101035.91;5035329;28;20656;-65
2023/06/19 02:29:36;;;;;;;10.63;6.85;;;;;;;19.96;53.54;101044.50;5019915;28;20056;-65
2023/06/19 02:32:02;;;;;;;8.50;6.57;;;;;;;19.94;53.66;101043.81;5020639;28;20438;-64
2023/06/19 02:34:28;;;;;;;8.93;6.90;;;;;;;20.00;53.45;101040.56;5036584;28;20029;-64
2023/06/19 02:36:53;;;;;;;11.43;6.88;;;;;;;19.92;53.94;101053.81;5019827;28;20033;-65
2023/06/19 02:39:18;;;;;;;9.07;6.93;;;;;;;19.91;54.12;101047.63;5036151;28;20072;-64
2023/06/19 02:41:45;;;;;;;8.15;6.85;;;;;;;19.85;54.55;101041.88;5019805;28;20428;-65
2023/06/19 02:44:11;;;;;;;7.82;6.50;;;;;;;19.93;54.29;101045.66;5053951;28;20017;-64
2023/06/19 02:46:37;;;;;;;9.40;6.65;;;;;;;19.87;54.44;101047.97;5036223;28;20381;-64
2023/06/19 02:49:03;;;;;;;8.32;6.68;;;;;;;19.90;54.51;101039.69;5036229;28;20040;-65
2023/06/19 02:51:28;;;;;;;7.93;7.00;;;;;;;19.80;53.91;101026.19;5035868;28;20032;-65
2023/06/19 02:53:53;;;;;;;11.05;7.57;;;;;;;19.80;54.68;101037.75;5035625;28;20450;-64
2023/06/19 02:56:18;;;;;;;8.88;7.18;;;;;;;19.84;54.29;101029.44;5018224;28;20017;-64
2023/06/19 02:58:44;;;;;;;8.32;6.78;;;;;;;19.83;55.11;101022.38;5019199;28;20033;-64
2023/06/19 03:01:09;;;;;;;13.45;7.35;;;;;;;19.81;54.86;101028.72;5052147;28;20058;-64
2023/06/19 03:03:37;;;;;;;8.77;7.15;;;;;;;19.84;54.55;101024.06;5035545;28;20151;-65
2023/06/19 03:06:05;;;;;;;8.05;7.03;;;;;;;19.82;54.39;101021.53;5035271;28;20032;-64
2023/06/19 03:08:30;;;;;;;8.68;6.85;;;;;;;19.86;54.40;101019.41;5035633;28;20032;-65
2023/06/19 03:10:55;;;;;;;9.13;7.32;;;;;;;19.93;53.89;101018.81;5035292;28;20504;-64
2023/06/19 03:13:21;;;;;;;8.88;7.13;;;;;;;19.86;54.93;101019.41;5053165;28;20469;-64
2023/06/19 03:15:46;;;;;;;9.13;7.88;;;;;;;19.79;54.94;101019.13;5053530;28;20024;-64
2023/06/19 03:18:12;;;;;;;8.05;6.97;;;;;;;19.75;54.60;101020.38;5053418;28;20028;-64
2023/06/19 03:20:38;;;;;;;9.60;7.72;;;;;;;19.84;54.09;101022.25;5035849;28;20020;-64
2023/06/19 03:23:03;;;;;;;11.48;7.85;;;;;;;19.71;54.73;101013.56;5051859;28;20405;-64
2023/06/19 03:25:34;;;;;;;8.77;7.05;;;;;;;19.77;54.24;101024.59;5035260;28;20032;-65
2023/06/19 03:28:00;;;;;;;8.13;7.32;;;;;;;19.79;54.93;101011.91;5036556;28;20021;-65
2023/06/19 03:30:25;;;;;;;15.75;7.95;;;;;;;19.79;54.98;101021.81;5053177;28;20031;-64
2023/06/19 03:32:50;;;;;;;8.95;7.82;;;;;;;19.87;54.64;101029.19;5035470;28;20032;-64
2023/06/19 03:35:16;;;;;;;9.05;7.25;;;;;;;19.73;54.41;101009.75;5053041;28;20036;-64
2023/06/19 03:37:41;;;;;;;9.82;7.28;;;;;;;19.77;54.46;101007.66;5052851;28;20032;-64
2023/06/19 03:40:09;;;;;;;8.95;7.65;;;;;;;19.79;54.75;101000.31;5035553;28;20085;-65
2023/06/19 03:42:34;;;;;;;10.10;7.32;;;;;;;19.77;54.53;100995.06;5052554;28;20104;-65
2023/06/19 03:45:00;;;;;;;9.50;7.85;;;;;;;19.78;54.78;100994.09;5035428;28;20124;-65
2023/06/19 03:47:25;;;;;;;10.52;7.90;;;;;;;19.81;54.69;100998.34;4995938;28;20022;-63
2023/06/19 03:49:51;;;;;;;9.85;7.90;;;;;;;19.80;54.78;100988.59;5026118;28;20029;-65
2023/06/19 03:52:16;;;;;;;9.82;7.78;;;;;;;19.89;54.81;100995.84;5012767;28;20108;-66
2023/06/19 03:54:42;;;;;;;8.85;7.70;;;;;;;19.82;55.47;100994.69;5016160;28;20053;-64
2023/06/19 03:57:08;;;;;;;10.05;7.25;;;;;;;19.86;54.59;100992.56;5032595;28;20108;-63
2023/06/19 03:59:34;;;;;;;10.63;7.85;;;;;;;19.94;54.70;100992.78;4998036;28;20124;-64
2023/06/19 04:01:59;;;;;;;9.35;7.57;;;;;;;20.00;54.23;100984.19;4995527;28;20556;-64
2023/06/19 04:04:24;;;;;;;9.88;7.68;;;;;;;20.07;53.92;100976.44;4996992;28;20034;-64
2023/06/19 04:06:50;;;;;;;12.52;7.43;;;;;;;19.94;53.98;100976.66;4994822;28;20049;-65
2023/06/19 04:09:15;;;;;;;9.77;7.43;;;;;;;19.87;54.56;100983.53;4996120;28;20025;-65
2023/06/19 04:11:41;;;;;;;8.20;7.32;;;;;;;19.81;54.67;100988.47;4995140;28;20033;-66
2023/06/19 04:14:06;;;;;;;11.02;7.72;;;;;;;20.03;54.27;100986.59;4984122;28;20026;-65
2023/06/19 04:16:31;;;;;;;10.63;7.90;;;;;;;19.95;54.23;100999.84;5011948;28;20033;-65
2023/06/19 04:18:57;;;;;;;11.70;8.20;;;;;;;19.92;54.12;100994.75;4995707;28;20026;-66
2023/06/19 04:21:22;;;;;;;9.85;7.43;;;;;;;19.84;54.61;100997.22;5012827;28;20033;-64
2023/06/19 04:23:47;;;;;;;12.45;8.32;;;;;;;19.79;54.51;100993.13;4995713;28;20050;-65
2023/06/19 04:26:13;;;;;;;10.32;7.65;;;;;;;19.77;54.58;100997.75;5012161;28;20049;-65
2023/06/19 04:28:39;;;;;;;10.60;8.52;;;;;;;19.81;54.36;100996.50;5011844;28;20025;-66
2023/06/19 04:31:05;;;;;;;10.20;7.93;;;;;;;19.74;54.47;100989.97;4994797;28;20509;-67
2023/06/19 04:33:31;;;;;;;8.73;7.75;;;;;;;19.81;53.65;101001.03;5011129;28;20475;-66
2023/06/19 04:35:56;;;;;;;10.50;8.20;;;;;;;19.85;54.66;100997.09;4994572;28;20025;-65
2023/06/19 04:38:23;;;;;;;11.18;8.15;;;;;;;19.81;53.84;100991.13;5012500;28;20021;-66
2023/06/19 04:40:52;;;;;;;11.45;8.70;;;;;;;19.85;53.89;100996.25;5007673;28;20050;-67
2023/06/19 04:43:17;;;;;;;10.32;8.60;;;;;;;19.87;53.99;101000.50;4992571;28;20117;-66
2023/06/19 04:45:43;;;;;;;10.02;8.20;;;;;;;19.87;53.80;100991.59;4991393;28;20125;-66
2023/06/19 04:48:08;;;;;;;10.90;8.85;;;;;;;19.81;54.07;100991.13;4991377;28;20033;-66
2023/06/19 04:50:34;;;;;;;9.77;7.80;;;;;;;19.89;54.22;100997.69;4992515;28;20057;-66
2023/06/19 04:52:59;;;;;;;9.98;8.60;;;;;;;20.02;53.41;100984.06;4992319;28;20595;-66
2023/06/19 04:55:25;;;;;;;12.75;8.30;;;;;;;20.13;52.97;100981.28;4991608;28;20033;-65
2023/06/19 04:57:50;;;;;;;8.85;7.95;;;;;;;20.04;53.69;100979.41;4992090;28;20403;-66
2023/06/19 05:00:18;;;;;;;11.23;8.15;;;;;;;20.05;53.48;100984.63;4991213;28;20081;-66
2023/06/19 05:02:45;;;;;;;9.63;8.20;;;;;;;20.03;53.58;100975.84;4991188;28;20046;-66
2023/06/19 05:05:11;;;;;;;10.07;8.77;;;;;;;20.07;53.86;100979.13;4974861;28;20037;-66
2023/06/19 05:07:36;;;;;;;9.77;8.07;;;;;;;20.04;53.89;100974.03;4990866;28;20038;-66
2023/06/19 05:10:02;;;;;;;10.95;7.20;;;;;;;19.99;53.97;100979.81;4992241;28;20426;-67
2023/06/19 05:12:27;;;;;;;8.77;7.78;;;;;;;20.02;54.05;100982.22;4992098;28;20030;-67
2023/06/19 05:14:52;;;;;;;10.20;8.35;;;;;;;20.01;54.36;100980.50;4990710;28;20022;-65
2023/06/19 05:17:18;;;;;;;15.95;8.68;;;;;;;20.00;53.94;100984.19;4990905;28;20026;-65
2023/06/19 05:19:43;;;;;;;12.25;8.38;;;;;;;20.07;54.32;100982.69;4994527;28;20097;-66
2023/06/19 05:22:08;;;;;;;9.95;8.85;;;;;;;20.13;53.13;100980.44;4994423;28;20030;-65
2023/06/19 05:24:34;;;;;;;10.25;8.77;;;;;;;20.03;53.83;100981.22;4994696;28;20337;-66
2023/06/19 05:26:59;;;;;;;9.05;7.82;;;;;;;20.02;53.59;100984.91;4994463;28;20069;-66
2023/06/19 05:29:25;;;;;;;11.45;8.02;;;;;;;20.07;53.52;100988.06;4994511;28;20053;-67
2023/06/19 05:31:50;;;;;;;10.13;8.73;;;;;;;19.98;53.51;100996.91;4994188;28;20022;-65
2023/06/19 05:34:15;;;;;;;10.77;8.57;;;;;;;20.03;53.63;100997.34;4994286;28;20061;-66
2023/06/19 05:36:41;;;;;;;10.82;7.93;;;;;;;20.13;53.28;101000.06;4978149;28;20053;-67
2023/06/19 05:39:06;;;;;;;12.90;8.40;;;;;;;20.28;53.31;101003.25;4994093;28;20046;-66
2023/06/19 05:41:32;;;;;;;10.43;8.18;;;;;;;20.17;54.12;101003.34;4993943;28;20479;-66
2023/06/19 05:43:58;;;;;;;10.02;8.20;;;;;;;20.09;54.66;100996.84;4994028;28;20027;-66
2023/06/19 05:46:24;;;;;;;9.13;8.00;;;;;;;20.13;53.92;100996.56;4995730;28;20089;-65
2023/06/19 05:48:49;;;;;;;11.52;8.35;;;;;;;20.07;53.57;101004.19;4978087;28;20057;-66
2023/06/19 05:51:15;;;;;;;9.60;7.82;;;;;;;20.18;53.88;101016.63;4978109;28;20054;-66
2023/06/19 05:53:40;;;;;;;12.85;9.00;;;;;;;20.12;53.57;101016.34;4977957;28;20523;-66
2023/06/19 05:56:06;;;;;;;12.35;8.45;;;;;;;20.23;52.68;101018.94;4993882;28;20037;-66
2023/06/19 05:58:32;;;;;;;11.63;8.40;;;;;;;20.23;53.10;101021.63;4993958;28;20022;-67
2023/06/19 06:00:58;;;;;;;12.65;8.88;;;;;;;20.29;52.30;101022.91;4995334;28;20026;-65
2023/06/19 06:03:25;;;;;;;11.95;8.77;;;;;;;20.42;52.58;101028.03;4993953;28;20030;-67
2023/06/19 06:05:50;;;;;;;12.70;8.85;;;;;;;20.58;51.67;101032.91;4994835;28;20435;-67
2023/06/19 06:08:15;;;;;;;30.23;9.98;;;;;;;20.69;50.31;101025.56;4993816;28;20030;-67
2023/06/19 06:10:41;;;;;;;21.10;10.52;;;;;;;20.74;51.31;101048.47;4993741;28;20034;-67
2023/06/19 06:13:06;;;;;;;22.70;10.48;;;;;;;20.69;51.29;101046.22;4994123;28;20026;-65
2023/06/19 06:15:31;;;;;;;19.50;9.82;;;;;;;20.62;52.49;101043.22;4993913;28;20026;-66
2023/06/19 06:17:57;;;;;;;17.17;9.77;;;;;;;20.57;52.97;101042.78;4993576;28;20186;-66
2023/06/19 06:20:22;;;;;;;18.70;10.45;;;;;;;20.54;54.38;101053.81;4993764;28;20069;-66
2023/06/19 06:22:48;;;;;;;27.23;11.48;;;;;;;20.46;55.82;101053.66;4994911;28;20026;-66
2023/06/19 06:25:13;;;;;;;23.23;11.30;;;;;;;20.31;57.13;101043.28;4993880;28;20034;-67
2023/06/19 06:27:38;;;;;;;20.15;11.23;;;;;;;20.26;57.57;101040.16;4996160;28;20089;-66
2023/06/19 06:30:04;;;;;;;18.05;10.73;;;;;;;20.32;58.09;101039.59;5003523;28;20033;-68
2023/06/19 06:32:31;;;;;;;17.83;10.57;;;;;;;20.10;57.49;101036.13;5000278;28;20044;-66
2023/06/19 06:34:57;;;;;;;17.67;10.65;;;;;;;20.14;58.11;101035.88;5004165;28;20040;-67
2023/06/19 06:37:22;;;;;;;24.00;11.60;;;;;;;20.23;57.79;101043.94;5012494;28;20095;-67
2023/06/19 06:39:51;;;;;;;23.92;11.30;;;;;;;20.35;56.99;101039.34;5011061;28;20791;-66
2023/06/19 06:42:17;;;;;;;26.13;11.05;;;;;;;20.39;56.90;101029.16;4998362;28;20042;-66
2023/06/19 06:44:42;;;;;;;18.38;10.80;;;;;;;20.31;57.11;101028.97;4977061;28;20046;-66
2023/06/19 06:47:08;;;;;;;21.95;11.73;;;;;;;20.17;57.93;101027.53;4994099;28;20418;-67
2023/06/19 06:49:33;;;;;;;25.35;12.30;;;;;;;20.07;59.97;101014.06;4994208;28;20030;-67
2023/06/19 06:51:58;;;;;;;18.08;11.80;;;;;;;20.19;59.69;100996.00;4976671;28;20026;-66
2023/06/19 06:54:24;;;;;;;16.85;11.43;;;;;;;20.15;60.93;100999.97;5009177;28;20026;-67
2023/06/19 06:56:49;;;;;;;20.08;11.23;;;;;;;20.08;60.88;101005.88;5008823;28;20030;-67
2023/06/19 06:59:17;;;;;;;41.78;13.18;;;;;;;20.21;59.43;101011.00;5008691;28;20537;-68
2023/06/19 07:01:43;;;;;;;30.30;12.30;;;;;;;20.15;59.65;101013.38;5008188;28;20117;-66
2023/06/19 07:04:08;;;;;;;40.97;14.75;;;;;;;20.34;57.82;101013.44;5008674;28;20109;-67
2023/06/19 07:06:33;;;;;;;52.70;14.85;;;;;;;20.35;57.68;101025.03;4992133;28;20113;-65
2023/06/19 07:08:59;;;;;;;21.25;11.57;;;;;;;20.56;57.78;101024.97;4993396;28;20030;-66
2023/06/19 07:11:24;;;;;;;38.95;13.10;;;;;;;20.63;59.44;101020.72;4993298;28;20030;-67
2023/06/19 07:13:50;;;;;;;14.75;10.68;;;;;;;20.68;57.55;101013.09;5008647;28;20049;-67
2023/06/19 07:16:15;;;;;;;19.77;10.57;;;;;;;20.85;56.93;101013.47;5008237;28;20100;-67
2023/06/19 07:18:41;;;;;;;13.15;10.40;;;;;;;20.63;58.57;101015.34;4993807;28;20040;-67
2023/06/19 07:21:13;;;;;;;15.82;11.30;;;;;;;20.69;57.74;101014.78;5008355;28;20030;-66
2023/06/19 07:23:40;;;;;;;15.65;10.48;;;;;;;20.60;56.17;101010.25;4992311;28;20427;-66
2023/06/19 07:26:05;;;;;;;18.45;10.32;;;;;;;20.49;56.47;101023.81;4993594;28;20372;-66
2023/06/19 07:28:30;;;;;;;24.55;10.85;;;;;;;20.46;56.77;101016.91;5008400;28;20025;-66
2023/06/19 07:30:56;;;;;;;13.70;10.02;;;;;;;20.80;55.56;101021.06;4993458;28;20026;-66
2023/06/19 07:33:21;;;;;;;12.32;10.23;;;;;;;21.05;55.92;101029.59;4992416;28;20034;-65
2023/06/19 07:35:47;;;;;;;17.90;10.32;;;;;;;21.02;56.12;101035.25;4993178;28;20026;-66
2023/06/19 07:38:12;;;;;;;16.25;10.52;;;;;;;21.12;55.42;101038.81;4991626;28;20041;-66
2023/06/19 07:40:37;;;;;;;14.57;10.65;;;;;;;21.09;56.08;101036.41;5009749;28;20054;-66
2023/06/19 07:43:02;;;;;;;17.63;10.75;;;;;;;21.07;56.25;101033.00;5010841;28;20037;-67
2023/06/19 07:45:28;;;;;;;13.80;10.48;;;;;;;21.03;57.39;101042.34;5011103;28;20030;-67
2023/06/19 07:47:55;;;;;;;58.90;15.85;;;;;;;21.05;54.88;101040.38;5012038;28;20025;-66
2023/06/19 07:50:20;;;;;;;57.55;15.52;;;;;;;21.11;55.69;101039.81;4994680;28;20105;-66
2023/06/19 07:52:45;;;;;;;35.72;13.98;;;;;;;21.18;55.59;101045.44;4995065;28;20112;-66
2023/06/19 07:55:11;;;;;;;38.00;13.02;;;;;;;21.22;53.75;101034.28;5012140;28;20053;-67
2023/06/19 07:57:36;;;;;;;19.70;11.18;;;;;;;21.30;52.06;101027.31;5010730;28;20034;-66
2023/06/19 08:00:07;;;;;;;15.60;9.98;;;;;;;21.67;52.46;101037.38;5012159;28;20029;-67
2023/06/19 08:02:32;;;;;;;25.20;11.65;;;;;;;21.80;51.72;101037.91;4995655;28;20022;-66
2023/06/19 08:04:57;;;;;;;58.63;14.70;;;;;;;22.21;51.36;101043.03;5010786;28;20037;-67
2023/06/19 08:07:23;;;;;;;58.80;13.90;;;;;;;22.31;50.67;101034.88;5012223;28;20022;-66
2023/06/19 08:09:49;;;;;;;42.20;14.48;;;;;;;22.11;51.17;101037.66;5012302;28;20029;-67
2023/06/19 08:12:14;;;;;;;28.85;12.15;;;;;;;22.32;49.23;101041.97;5010938;28;20621;-68
2023/06/19 08:14:40;;;;;;;38.70;12.43;;;;;;;22.00;50.77;101029.78;5010734;28;20026;-67
2023/06/19 08:17:05;;;;;;;31.02;12.48;;;;;;;22.45;49.93;101033.59;5011894;28;20544;-66
2023/06/19 08:19:30;;;;;;;34.30;13.05;;;;;;;22.69;49.94;101029.47;5010882;28;20064;-68
2023/06/19 08:21:56;;;;;;;14.32;10.80;;;;;;;22.65;49.38;101030.75;5011919;28;20112;-66
2023/06/19 08:24:21;;;;;;;14.85;10.73;;;;;;;22.54;49.59;101027.28;5010216;28;20038;-68
2023/06/19 08:26:50;;;;;;;25.58;11.18;;;;;;;22.43;49.63;101022.94;5010429;28;20057;-66
2023/06/19 08:29:16;;;;;;;22.30;12.93;;;;;;;22.67;49.94;101028.75;5011798;28;20022;-67
2023/06/19 08:31:42;;;;;;;22.45;11.85;;;;;;;23.02;48.82;101029.81;5011930;28;20036;-67
2023/06/19 08:34:09;;;;;;;15.85;10.98;;;;;;;23.32;48.42;101024.19;4994367;28;20087;-67
2023/06/19 08:36:35;;;;;;;15.73;10.57;;;;;;;23.40;48.45;101018.88;5011494;28;20382;-68
2023/06/19 08:39:08;;;;;;;34.88;13.85;;;;;;;23.44;47.97;101017.53;5007131;28;20051;-68
2023/06/19 08:41:38;;;;;;;44.92;13.77;;;;;;;23.34;47.77;101022.19;4992270;28;20026;-66
2023/06/19 08:44:04;;;;;;;24.25;12.80;;;;;;;23.33;47.79;101012.41;4991934;28;20083;-66
2023/06/19 08:46:30;;;;;;;38.70;13.18;;;;;;;23.59;48.38;101021.38;4992131;28;20036;-66
2023/06/19 08:48:56;;;;;;;14.02;11.20;;;;;;;23.46;47.17;101012.84;5006775;28;20483;-66
2023/06/19 08:51:21;;;;;;;102.00;20.30;;;;;;;23.73;47.63;101003.75;4990451;28;20023;-71
2023/06/19 08:53:50;;;;;;;50.00;14.40;;;;;;;24.01;47.47;101006.28;4994282;28;20490;-66
2023/06/19 08:56:16;;;;;;;26.30;12.02;;;;;;;24.14;47.43;101015.78;4995841;28;20026;-65
2023/06/19 08:58:42;;;;;;;21.70;11.73;;;;;;;23.97;46.40;101022.97;4995457;28;20417;-66
2023/06/19 09:01:07;;;;;;;26.80;12.35;;;;;;;23.84;47.92;101013.41;4994184;28;20077;-67
2023/06/19 09:03:33;;;;;;;80.47;19.60;;;;;;;23.26;48.77;101015.72;4995571;28;20490;-67
2023/06/19 09:06:03;;;;;;;34.53;12.50;;;;;;;23.43;48.79;101015.84;5010380;28;20031;-66
2023/06/19 09:08:28;;;;;;;25.20;13.02;;;;;;;23.87;47.69;101013.13;5010524;28;20114;-65
2023/06/19 09:11:04;;;;;;;46.83;13.02;;;;;;;24.38;47.21;101017.75;5010556;28;20117;-66
2023/06/19 09:13:30;;;;;;;36.35;12.77;;;;;;;24.02;47.34;101013.38;4995532;28;20038;-66
2023/06/19 09:16:07;;;;;;;42.33;12.88;;;;;;;23.99;47.68;101020.94;5010442;28;20157;-67
2023/06/19 09:18:46;;;;;;;34.40;13.15;;;;;;;23.72;48.09;101012.00;4993893;28;20030;-66
2023/06/19 09:21:23;;;;;;;24.45;12.65;;;;;;;23.88;48.54;101014.81;4993994;28;20026;-66
2023/06/19 09:23:51;;;;;;;20.98;10.73;;;;;;;24.54;46.77;101008.84;4994372;28;20058;-71
2023/06/19 09:26:18;;;;;;;24.23;12.18;;;;;;;24.55;46.81;101001.56;5010794;28;20025;-71
2023/06/19 09:28:44;;;;;;;17.02;11.35;;;;;;;24.59;46.18;101006.50;4994286;28;20498;-71
2023/06/19 09:31:10;;;;;;;14.13;10.95;;;;;;;24.70;45.40;101001.78;4994792;28;20030;-71
2023/06/19 09:33:35;;;;;;;14.43;10.32;;;;;;;24.72;46.30;101006.03;4994430;28;20180;-72
2023/06/19 09:36:03;;;;;;;14.90;10.70;;;;;;;25.19;45.41;101011.84;5010616;28;20033;-72
2023/06/19 09:38:39;;;;;;;19.70;11.30;;;;;;;25.06;45.66;101011.50;4994281;28;20022;-72
2023/06/19 09:41:05;;;;;;;16.52;11.63;;;;;;;25.35;44.58;101005.59;4994378;28;20045;-72
2023/06/19 09:43:40;;;;;;;19.98;11.38;;;;;;;25.73;44.72;101007.75;4977766;28;20472;-73
2023/06/19 09:46:07;;;;;;;22.95;13.02;;;;;;;25.18;44.91;101010.16;4994731;28;20448;-70
2023/06/19 09:48:34;;;;;;;18.95;11.75;;;;;;;25.45;44.54;101011.69;4995373;28;20050;-69
2023/06/19 09:51:23;;;;;;;19.85;11.07;;;;;;;25.31;44.31;101013.19;4994367;28;20554;-70
2023/06/19 09:53:50;;;;;;;16.77;11.45;;;;;;;25.06;46.03;101017.78;4994567;28;20022;-70
2023/06/19 09:56:21;;;;;;;15.85;11.90;;;;;;;25.17;46.18;101013.88;4993849;28;20536;-70
2023/06/19 09:58:47;;;;;;;20.13;11.65;;;;;;;25.19;45.90;101011.84;4995283;28;20141;-70
2023/06/19 10:01:13;;;;;;;17.48;11.20;;;;;;;25.44;45.91;101017.28;4994438;28;20392;-72
2023/06/19 10:03:40;;;;;;;14.50;10.77;;;;;;;25.43;46.22;101015.59;4995051;28;20550;-71
2023/06/19 10:06:06;;;;;;;11.75;9.85;;;;;;;25.90;44.81;101008.59;4993569;28;20109;-71
2023/06/19 10:08:39;;;;;;;16.27;11.57;;;;;;;26.35;44.28;100998.09;4995205;28;20076;-74
2023/06/19 10:11:04;;;;;;;15.98;10.82;;;;;;;25.74;45.51;100998.63;4993715;28;20125;-71
2023/06/19 10:13:35;;;;;;;14.70;11.20;;;;;;;25.61;45.96;101002.72;4977408;28;20121;-71
2023/06/19 10:16:01;;;;;;;16.23;10.35;;;;;;;25.88;44.48;100997.06;4993956;28;20041;-70
2023/06/19 10:18:26;;;;;;;14.45;11.50;;;;;;;26.02;44.42;100998.19;4993160;28;20026;-71
2023/06/19 10:20:53;;;;;;;14.35;10.98;;;;;;;26.06;45.00;101002.22;4992930;28;20031;-71
2023/06/19 10:23:24;;;;;;;14.25;10.48;;;;;;;25.98;45.22;100996.84;4993101;28;20113;-71
2023/06/19 10:25:57;;;;;;;17.52;10.88;;;;;;;26.48;43.75;100983.94;4994295;28;20039;-72
2023/06/19 10:28:27;;;;;;;15.50;10.88;;;;;;;27.11;42.69;100983.88;4993160;28;20066;-71
2023/06/19 10:31:06;;;;;;;13.43;10.25;;;;;;;27.32;42.24;100979.63;5009313;28;20026;-71
2023/06/19 10:33:33;;;;;;;13.32;11.38;;;;;;;26.65;42.40;100984.69;4992852;28;20050;-71
2023/06/19 10:36:13;;;;;;;16.73;10.80;;;;;;;26.26;43.14;100991.03;4976965;28;20018;-72
2023/06/19 10:38:38;;;;;;;12.65;10.55;;;;;;;26.33;43.58;100997.44;4993490;28;20029;-70
2023/06/19 10:41:04;;;;;;;12.77;10.07;;;;;;;26.14;43.36;100993.25;5013542;28;20101;-71
2023/06/19 10:43:32;;;;;;;15.82;10.23;;;;;;;26.81;42.19;100988.31;5013566;28;20070;-70
2023/06/19 10:45:58;;;;;;;11.73;10.15;;;;;;;26.94;41.76;100994.03;5013326;28;20064;-71
2023/06/19 10:48:24;;;;;;;12.13;10.15;;;;;;;26.96;43.09;100991.97;4995857;28;20056;-69
2023/06/19 10:50:49;;;;;;;12.93;9.90;;;;;;;27.29;41.03;100988.97;5012449;28;20057;-71
2023/06/19 10:53:25;;;;;;;12.60;9.68;;;;;;;27.29;40.99;101002.56;4996189;28;20045;-71
2023/06/19 10:55:55;;;;;;;12.07;9.75;;;;;;;26.62;42.06;101001.31;5013454;28;20057;-71
2023/06/19 10:58:21;;;;;;;14.32;10.30;;;;;;;26.87;42.61;100993.91;5012152;28;20037;-72
2023/06/19 11:00:46;;;;;;;15.35;10.02;;;;;;;27.49;40.29;100991.16;5013393;28;20037;-70
2023/06/19 11:03:12;;;;;;;14.00;9.77;;;;;;;27.62;40.53;100983.22;5012304;28;20024;-72
2023/06/19 11:05:43;;;;;;;12.85;9.23;;;;;;;27.82;40.10;100985.41;5012007;28;20136;-70
2023/06/19 11:08:08;;;;;;;11.15;9.95;;;;;;;27.15;41.06;100989.78;5011750;28;20026;-72
2023/06/19 11:10:34;;;;;;;13.27;10.40;;;;;;;27.04;41.40;100986.47;5013064;28;20117;-70
2023/06/19 11:12:59;;;;;;;11.27;9.13;;;;;;;26.76;40.89;100975.28;5012956;28;20057;-72